createdAt,value
2019-02-09T00:00:25.223Z,0.00
2019-02-09T00:01:25.407Z,0.00
2019-02-09T00:02:25.587Z,0.00
2019-02-09T00:03:25.769Z,0.00
2019-02-09T00:04:25.951Z,0.00
2019-02-09T00:05:26.137Z,0.00
2019-02-09T00:06:26.313Z,0.00
2019-02-09T00:07:26.513Z,0.00
2019-02-09T00:08:26.691Z,0.00
2019-02-09T00:09:26.867Z,0.00
2019-02-09T00:10:27.055Z,0.00
2019-02-09T00:11:27.245Z,0.00
2019-02-09T00:12:27.431Z,0.00
2019-02-09T00:13:27.605Z,0.00
2019-02-09T00:14:27.792Z,0.00
2019-02-09T00:15:27.971Z,0.00
2019-02-09T00:16:28.155Z,0.00
2019-02-09T00:17:28.336Z,0.00
2019-02-09T00:18:28.514Z,0.00
2019-02-09T00:19:28.699Z,0.00
2019-02-09T00:20:28.880Z,0.00
2019-02-09T00:21:29.064Z,0.00
2019-02-09T00:22:29.245Z,0.00
2019-02-09T00:23:29.428Z,0.00
2019-02-09T00:24:29.615Z,0.00
2019-02-09T00:25:29.812Z,0.00
2019-02-09T00:26:29.984Z,0.00
2019-02-09T00:27:30.163Z,0.00
2019-02-09T00:28:30.359Z,0.00
2019-02-09T00:29:30.546Z,0.00
2019-02-09T00:30:30.728Z,0.00
2019-02-09T00:31:30.910Z,0.00
2019-02-09T00:32:31.094Z,0.00
2019-02-09T00:33:31.274Z,0.00
2019-02-09T00:34:31.456Z,0.00
2019-02-09T00:35:31.637Z,0.00
2019-02-09T00:36:31.817Z,0.00
2019-02-09T00:37:32.008Z,0.00
2019-02-09T00:38:32.195Z,0.00
2019-02-09T00:39:32.380Z,0.00
2019-02-09T00:40:32.559Z,0.00
2019-02-09T00:41:32.741Z,0.00
2019-02-09T00:42:32.936Z,0.00
2019-02-09T00:43:33.105Z,0.00
2019-02-09T00:44:33.287Z,0.00
2019-02-09T00:45:33.470Z,0.00
2019-02-09T00:46:33.652Z,0.00
2019-02-09T00:47:33.832Z,0.00
2019-02-09T00:48:34.029Z,0.00
2019-02-09T00:49:34.201Z,0.00
2019-02-09T00:50:34.386Z,0.00
2019-02-09T00:51:34.562Z,0.00
2019-02-09T00:52:34.752Z,0.00
2019-02-09T00:53:34.931Z,0.00
2019-02-09T00:54:35.112Z,0.00
2019-02-09T00:55:35.298Z,0.00
2019-02-09T00:56:35.478Z,0.00
2019-02-09T00:57:35.659Z,0.00
2019-02-09T00:58:35.836Z,0.00
2019-02-09T00:59:36.015Z,0.00
2019-02-09T01:00:36.203Z,0.00
2019-02-09T01:01:36.375Z,0.00
2019-02-09T01:02:36.555Z,0.00
2019-02-09T01:03:36.735Z,0.00
2019-02-09T01:04:36.913Z,0.00
2019-02-09T01:05:37.098Z,0.00
2019-02-09T01:06:37.281Z,0.00
2019-02-09T01:07:37.459Z,0.00
2019-02-09T01:08:37.642Z,0.00
2019-02-09T01:09:37.833Z,0.00
2019-02-09T01:10:38.017Z,0.00
2019-02-09T01:11:38.200Z,0.00
2019-02-09T01:12:38.388Z,0.00
2019-02-09T01:13:38.574Z,0.00
2019-02-09T01:14:38.755Z,0.00
2019-02-09T01:15:38.934Z,0.00
2019-02-09T01:16:39.118Z,0.00
2019-02-09T01:17:39.312Z,0.00
2019-02-09T01:18:39.488Z,0.00
2019-02-09T01:19:39.668Z,0.00
2019-02-09T01:20:39.853Z,0.00
2019-02-09T01:21:40.038Z,0.00
2019-02-09T01:22:40.217Z,0.00
2019-02-09T01:23:40.393Z,0.00
2019-02-09T01:24:40.597Z,0.00
2019-02-09T01:25:40.760Z,0.00
2019-02-09T01:26:40.939Z,0.00
2019-02-09T01:27:41.122Z,0.00
2019-02-09T01:28:41.317Z,0.00
2019-02-09T01:29:41.510Z,0.00
2019-02-09T01:30:41.674Z,0.00
2019-02-09T01:31:41.857Z,0.00
2019-02-09T01:32:42.043Z,0.00
2019-02-09T01:33:42.221Z,0.00
2019-02-09T01:34:42.407Z,0.00
2019-02-09T01:35:42.592Z,0.00
2019-02-09T01:36:42.774Z,0.00
2019-02-09T01:37:42.955Z,0.00
2019-02-09T01:38:43.144Z,0.00
2019-02-09T01:39:43.323Z,0.00
2019-02-09T01:40:43.502Z,0.00
2019-02-09T01:41:43.688Z,0.00
2019-02-09T01:42:43.868Z,0.00
2019-02-09T01:43:44.049Z,0.00
2019-02-09T01:44:44.235Z,0.00
2019-02-09T01:45:44.422Z,0.00
2019-02-09T01:46:44.603Z,0.00
2019-02-09T01:47:44.784Z,0.00
2019-02-09T01:48:44.977Z,0.00
2019-02-09T01:49:45.155Z,0.00
2019-02-09T01:50:45.339Z,0.00
2019-02-09T01:51:45.536Z,0.00
2019-02-09T01:52:45.718Z,0.00
2019-02-09T01:53:45.902Z,0.00
2019-02-09T01:54:46.075Z,0.00
2019-02-09T01:55:46.259Z,0.00
2019-02-09T01:56:46.458Z,0.00
2019-02-09T01:57:46.630Z,0.00
2019-02-09T01:58:46.822Z,0.00
2019-02-09T01:59:47.000Z,0.00
2019-02-09T02:00:47.185Z,0.00
2019-02-09T02:01:47.369Z,0.00
2019-02-09T02:02:47.551Z,0.00
2019-02-09T02:03:47.731Z,0.00
2019-02-09T02:04:47.924Z,0.00
2019-02-09T02:05:48.103Z,0.00
2019-02-09T02:06:48.289Z,0.00
2019-02-09T02:07:48.481Z,0.00
2019-02-09T02:08:48.653Z,0.00
2019-02-09T02:09:48.835Z,0.00
2019-02-09T02:10:49.021Z,0.00
2019-02-09T02:11:49.211Z,0.00
2019-02-09T02:12:49.392Z,0.00
2019-02-09T02:13:49.584Z,0.00
2019-02-09T02:14:49.761Z,0.00
2019-02-09T02:15:49.942Z,0.00
2019-02-09T02:16:50.123Z,0.00
2019-02-09T02:17:50.307Z,0.00
2019-02-09T02:18:50.493Z,0.00
2019-02-09T02:19:50.678Z,0.00
2019-02-09T02:20:50.861Z,0.00
2019-02-09T02:21:51.046Z,0.00
2019-02-09T02:22:51.260Z,0.00
2019-02-09T02:23:51.405Z,0.00
2019-02-09T02:24:51.588Z,0.00
2019-02-09T02:25:51.767Z,0.00
2019-02-09T02:26:51.956Z,0.00
2019-02-09T02:27:52.145Z,0.00
2019-02-09T02:28:52.343Z,0.00
2019-02-09T02:29:52.507Z,0.00
2019-02-09T02:30:52.688Z,0.00
2019-02-09T02:31:52.875Z,0.00
2019-02-09T02:32:53.069Z,0.00
2019-02-09T02:33:53.237Z,0.00
2019-02-09T02:34:53.418Z,0.00
2019-02-09T02:35:53.598Z,0.00
2019-02-09T02:36:53.784Z,0.00
2019-02-09T02:37:53.969Z,0.00
2019-02-09T02:38:54.157Z,0.00
2019-02-09T02:39:54.346Z,0.00
2019-02-09T02:40:54.528Z,0.00
2019-02-09T02:41:54.718Z,0.00
2019-02-09T02:42:54.901Z,0.00
2019-02-09T02:43:55.094Z,0.00
2019-02-09T02:44:55.274Z,0.00
2019-02-09T02:45:55.453Z,0.00
2019-02-09T02:46:55.635Z,0.00
2019-02-09T02:47:55.822Z,0.00
2019-02-09T02:48:56.002Z,0.00
2019-02-09T02:49:56.186Z,0.00
2019-02-09T02:50:56.386Z,0.00
2019-02-09T02:51:56.569Z,0.00
2019-02-09T02:52:56.777Z,0.00
2019-02-09T02:53:56.942Z,0.00
2019-02-09T02:54:57.123Z,0.00
2019-02-09T02:55:57.328Z,0.00
2019-02-09T02:56:57.502Z,0.00
2019-02-09T02:57:57.688Z,0.00
2019-02-09T02:58:57.863Z,0.00
2019-02-09T02:59:58.048Z,0.00
2019-02-09T03:00:58.231Z,0.00
2019-02-09T03:01:58.418Z,0.00
2019-02-09T03:02:58.597Z,0.00
2019-02-09T03:03:58.783Z,0.00
2019-02-09T03:04:58.965Z,0.00
2019-02-09T03:05:59.149Z,0.00
2019-02-09T03:06:59.331Z,0.00
2019-02-09T03:07:59.532Z,0.00
2019-02-09T03:08:59.696Z,0.00
2019-02-09T03:09:59.870Z,0.00
2019-02-09T03:11:00.056Z,0.00
2019-02-09T03:12:00.229Z,0.00
2019-02-09T03:13:00.411Z,0.00
2019-02-09T03:14:00.598Z,0.00
2019-02-09T03:15:00.785Z,0.00
2019-02-09T03:16:00.953Z,0.00
2019-02-09T03:17:01.133Z,0.00
2019-02-09T03:18:01.317Z,0.00
2019-02-09T03:19:01.498Z,0.00
2019-02-09T03:20:01.688Z,0.00
2019-02-09T03:21:01.864Z,0.00
2019-02-09T03:22:02.099Z,0.00
2019-02-09T03:23:02.230Z,0.00
2019-02-09T03:24:02.407Z,0.00
2019-02-09T03:25:02.593Z,0.00
2019-02-09T03:26:02.767Z,0.00
2019-02-09T03:27:02.951Z,0.00
2019-02-09T03:28:03.128Z,0.00
2019-02-09T03:29:03.310Z,0.00
2019-02-09T03:30:03.492Z,0.00
2019-02-09T03:31:03.671Z,0.00
2019-02-09T03:32:03.856Z,0.00
2019-02-09T03:33:04.142Z,0.00
2019-02-09T03:34:04.221Z,0.00
2019-02-09T03:35:04.404Z,0.00
2019-02-09T03:36:04.586Z,0.00
2019-02-09T03:37:04.767Z,0.00
2019-02-09T03:38:04.952Z,0.00
2019-02-09T03:39:06.082Z,0.00
2019-02-09T03:40:05.313Z,0.00
2019-02-09T03:41:05.500Z,0.00
2019-02-09T03:42:05.690Z,0.00
2019-02-09T03:43:05.898Z,0.00
2019-02-09T03:44:06.058Z,0.00
2019-02-09T03:45:06.248Z,0.00
2019-02-09T03:46:06.429Z,0.00
2019-02-09T03:47:06.626Z,0.00
2019-02-09T03:48:06.803Z,0.00
2019-02-09T03:49:06.989Z,0.00
2019-02-09T03:50:07.173Z,0.00
2019-02-09T03:51:07.359Z,0.00
2019-02-09T03:52:07.548Z,0.00
2019-02-09T03:53:07.725Z,0.00
2019-02-09T03:54:07.920Z,0.00
2019-02-09T03:55:08.098Z,0.00
2019-02-09T03:56:08.279Z,0.00
2019-02-09T03:57:08.477Z,0.00
2019-02-09T03:58:08.650Z,0.00
2019-02-09T03:59:08.832Z,0.00
2019-02-09T04:00:09.023Z,0.00
2019-02-09T04:01:09.201Z,0.00
2019-02-09T04:02:09.375Z,0.00
2019-02-09T04:03:09.560Z,0.00
2019-02-09T04:04:09.739Z,0.00
2019-02-09T04:05:09.925Z,0.00
2019-02-09T04:06:10.106Z,0.00
2019-02-09T04:07:10.283Z,0.00
2019-02-09T04:08:10.477Z,0.00
2019-02-09T04:09:10.657Z,0.00
2019-02-09T04:10:10.835Z,0.00
2019-02-09T04:11:11.019Z,0.00
2019-02-09T04:12:11.204Z,0.00
2019-02-09T04:13:11.384Z,0.00
2019-02-09T04:14:11.568Z,0.00
2019-02-09T04:15:11.750Z,0.00
2019-02-09T04:16:11.931Z,0.00
2019-02-09T04:17:12.110Z,0.00
2019-02-09T04:18:12.290Z,0.00
2019-02-09T04:19:12.475Z,0.00
2019-02-09T04:20:12.664Z,0.00
2019-02-09T04:21:12.841Z,0.00
2019-02-09T04:22:13.020Z,0.00
2019-02-09T04:23:13.209Z,0.00
2019-02-09T04:24:13.386Z,0.00
2019-02-09T04:25:13.583Z,0.00
2019-02-09T04:26:13.757Z,0.00
2019-02-09T04:27:13.945Z,0.00
2019-02-09T04:28:14.121Z,0.00
2019-02-09T04:29:14.302Z,0.00
2019-02-09T04:30:14.488Z,0.00
2019-02-09T04:31:14.670Z,0.00
2019-02-09T04:32:14.850Z,0.00
2019-02-09T04:33:15.044Z,0.00
2019-02-09T04:34:15.218Z,0.00
2019-02-09T04:35:15.399Z,0.00
2019-02-09T04:36:15.584Z,0.00
2019-02-09T04:37:15.770Z,0.00
2019-02-09T04:38:15.955Z,0.00
2019-02-09T04:39:16.141Z,0.00
2019-02-09T04:40:16.316Z,0.00
2019-02-09T04:41:16.498Z,0.00
2019-02-09T04:42:16.678Z,0.00
2019-02-09T04:43:16.866Z,0.00
2019-02-09T04:44:17.051Z,0.00
2019-02-09T04:45:17.231Z,0.00
2019-02-09T04:46:17.409Z,0.00
2019-02-09T04:47:17.591Z,0.00
2019-02-09T04:48:17.769Z,0.00
2019-02-09T04:49:17.957Z,0.00
2019-02-09T04:50:18.143Z,0.00
2019-02-09T04:51:18.324Z,0.00
2019-02-09T04:52:18.504Z,0.00
2019-02-09T04:53:18.682Z,0.00
2019-02-09T04:54:18.867Z,0.00
2019-02-09T04:55:19.053Z,0.00
2019-02-09T04:56:19.232Z,0.00
2019-02-09T04:57:19.422Z,0.00
2019-02-09T04:58:19.609Z,0.00
2019-02-09T04:59:19.790Z,0.00
2019-02-09T05:00:19.969Z,0.00
2019-02-09T05:01:20.152Z,0.00
2019-02-09T05:02:20.346Z,0.00
2019-02-09T05:03:20.525Z,0.00
2019-02-09T05:04:20.712Z,0.00
2019-02-09T05:05:20.891Z,0.00
2019-02-09T05:06:21.072Z,0.00
2019-02-09T05:07:21.257Z,0.00
2019-02-09T05:08:21.436Z,0.00
2019-02-09T05:09:21.617Z,0.00
2019-02-09T05:10:21.801Z,0.00
2019-02-09T05:11:21.984Z,0.00
2019-02-09T05:12:22.165Z,0.00
2019-02-09T05:13:22.349Z,0.00
2019-02-09T05:14:22.536Z,0.00
2019-02-09T05:15:22.726Z,0.00
2019-02-09T05:16:22.895Z,0.00
2019-02-09T05:17:23.081Z,0.00
2019-02-09T05:18:23.283Z,0.00
2019-02-09T05:19:23.443Z,0.00
2019-02-09T05:20:24.939Z,0.00
2019-02-09T05:21:23.815Z,0.00
2019-02-09T05:22:23.996Z,0.00
2019-02-09T05:23:24.178Z,0.00
2019-02-09T05:24:24.361Z,0.00
2019-02-09T05:25:24.547Z,0.00
2019-02-09T05:26:24.725Z,0.00
2019-02-09T05:27:24.909Z,0.00
2019-02-09T05:28:25.090Z,0.00
2019-02-09T05:29:25.270Z,0.00
2019-02-09T05:30:25.452Z,0.00
2019-02-09T05:31:25.637Z,0.00
2019-02-09T05:32:25.819Z,0.00
2019-02-09T05:33:26.009Z,0.00
2019-02-09T05:34:26.180Z,0.00
2019-02-09T05:35:26.368Z,0.00
2019-02-09T05:36:26.549Z,0.00
2019-02-09T05:37:26.730Z,0.00
2019-02-09T05:38:26.924Z,0.00
2019-02-09T05:39:27.103Z,0.00
2019-02-09T05:40:27.277Z,0.00
2019-02-09T05:41:27.511Z,0.00
2019-02-09T05:42:27.637Z,0.00
2019-02-09T05:43:27.825Z,0.00
2019-02-09T05:44:28.070Z,0.00
2019-02-09T05:45:28.187Z,0.00
2019-02-09T05:46:28.381Z,0.00
2019-02-09T05:47:28.565Z,0.00
2019-02-09T05:48:28.745Z,0.00
2019-02-09T05:49:28.926Z,0.00
2019-02-09T05:50:29.108Z,0.00
2019-02-09T05:51:29.291Z,0.00
2019-02-09T05:52:29.466Z,0.00
2019-02-09T05:53:29.652Z,0.00
2019-02-09T05:54:29.837Z,0.00
2019-02-09T05:55:30.029Z,0.00
2019-02-09T05:56:30.215Z,0.00
2019-02-09T05:57:30.391Z,0.00
2019-02-09T05:58:30.586Z,0.00
2019-02-09T05:59:30.777Z,0.00
2019-02-09T06:00:31.016Z,0.00
2019-02-09T06:01:32.622Z,0.00
2019-02-09T06:02:31.322Z,0.00
2019-02-09T06:03:31.509Z,0.00
2019-02-09T06:04:31.699Z,0.00
2019-02-09T06:05:31.880Z,0.00
2019-02-09T06:06:32.062Z,0.00
2019-02-09T06:07:32.238Z,0.00
2019-02-09T06:08:32.430Z,0.00
2019-02-09T06:09:32.611Z,0.00
2019-02-09T06:10:32.794Z,0.00
2019-02-09T06:11:32.972Z,0.00
2019-02-09T06:12:33.156Z,4.00
2019-02-09T06:13:33.345Z,4.00
2019-02-09T06:14:33.524Z,4.00
2019-02-09T06:15:33.702Z,4.00
2019-02-09T06:16:33.884Z,8.00
2019-02-09T06:17:34.064Z,8.00
2019-02-09T06:18:34.245Z,8.00
2019-02-09T06:19:34.431Z,8.00
2019-02-09T06:20:34.615Z,8.00
2019-02-09T06:21:34.803Z,8.00
2019-02-09T06:22:34.986Z,8.00
2019-02-09T06:23:35.169Z,12.00
2019-02-09T06:24:35.346Z,12.00
2019-02-09T06:25:35.528Z,16.00
2019-02-09T06:26:35.713Z,20.00
2019-02-09T06:27:35.893Z,24.00
2019-02-09T06:28:36.074Z,24.00
2019-02-09T06:29:36.269Z,28.00
2019-02-09T06:30:36.448Z,24.00
2019-02-09T06:31:40.968Z,32.00
2019-02-09T06:32:36.819Z,36.00
2019-02-09T06:33:37.010Z,36.00
2019-02-09T06:34:37.196Z,40.00
2019-02-09T06:35:37.384Z,40.00
2019-02-09T06:36:37.563Z,56.00
2019-02-09T06:37:38.983Z,68.00
2019-02-09T06:38:37.926Z,116.00
2019-02-09T06:39:38.114Z,140.00
2019-02-09T06:40:38.291Z,160.00
2019-02-09T06:41:38.473Z,176.00
2019-02-09T06:42:38.658Z,160.00
2019-02-09T06:43:38.851Z,120.00
2019-02-09T06:44:39.035Z,120.00
2019-02-09T06:45:39.225Z,104.00
2019-02-09T06:46:39.406Z,108.00
2019-02-09T06:47:39.590Z,160.00
2019-02-09T06:48:39.772Z,232.00
2019-02-09T06:49:39.954Z,312.00
2019-02-09T06:50:40.161Z,432.00
2019-02-09T06:51:40.316Z,492.00
2019-02-09T06:52:40.503Z,556.00
2019-02-09T06:53:40.682Z,540.00
2019-02-09T06:54:40.870Z,548.00
2019-02-09T06:55:41.052Z,608.00
2019-02-09T06:56:41.237Z,676.00
2019-02-09T06:57:41.420Z,792.00
2019-02-09T06:58:41.607Z,920.00
2019-02-09T06:59:41.783Z,1024.00
2019-02-09T07:00:41.970Z,1140.00
2019-02-09T07:01:48.540Z,1240.00
2019-02-09T07:02:42.345Z,1360.00
2019-02-09T07:03:42.523Z,1452.00
2019-02-09T07:04:42.703Z,1516.00
2019-02-09T07:05:42.879Z,1488.00
2019-02-09T07:06:43.061Z,1396.00
2019-02-09T07:07:43.252Z,1372.00
2019-02-09T07:08:43.431Z,1272.00
2019-02-09T07:09:43.613Z,1124.00
2019-02-09T07:10:43.794Z,912.00
2019-02-09T07:11:43.977Z,840.00
2019-02-09T07:12:44.156Z,908.00
2019-02-09T07:13:44.341Z,1068.00
2019-02-09T07:14:44.526Z,1264.00
2019-02-09T07:15:44.702Z,1504.00
2019-02-09T07:16:44.879Z,1960.00
2019-02-09T07:17:45.067Z,2388.00
2019-02-09T07:18:45.249Z,2780.00
2019-02-09T07:19:45.443Z,3056.00
2019-02-09T07:20:45.621Z,2972.00
2019-02-09T07:21:45.801Z,3004.00
2019-02-09T07:22:45.986Z,2680.00
2019-02-09T07:23:46.168Z,2276.00
2019-02-09T07:24:46.355Z,1988.00
2019-02-09T07:25:46.546Z,1732.00
2019-02-09T07:26:46.731Z,1604.00
2019-02-09T07:27:46.915Z,1704.00
2019-02-09T07:28:47.104Z,1936.00
2019-02-09T07:29:47.281Z,2396.00
2019-02-09T07:30:47.466Z,2704.00
2019-02-09T07:31:47.649Z,3272.00
2019-02-09T07:32:47.831Z,4156.00
2019-02-09T07:33:48.017Z,4932.00
2019-02-09T07:34:48.200Z,6284.00
2019-02-09T07:35:48.382Z,7684.00
2019-02-09T07:36:48.573Z,10268.00
2019-02-09T07:37:48.751Z,7284.00
2019-02-09T07:38:48.935Z,5620.00
2019-02-09T07:39:49.120Z,6544.00
2019-02-09T07:40:49.301Z,10972.00
2019-02-09T07:41:49.481Z,7328.00
2019-02-09T07:42:49.663Z,8280.00
2019-02-09T07:43:49.847Z,8660.00
2019-02-09T07:44:50.037Z,9520.00
2019-02-09T07:45:50.214Z,18432.00
2019-02-09T07:46:50.394Z,52000.00
2019-02-09T07:47:50.578Z,19072.00
2019-02-09T07:48:50.770Z,10120.00
2019-02-09T07:49:50.970Z,11224.00
2019-02-09T07:50:51.153Z,30400.00
2019-02-09T07:51:51.338Z,32448.00
2019-02-09T07:52:51.520Z,22528.00
2019-02-09T07:53:51.708Z,9924.00
2019-02-09T07:54:51.900Z,7748.00
2019-02-09T07:55:52.080Z,8716.00
2019-02-09T07:56:52.267Z,9956.00
2019-02-09T07:57:52.465Z,6920.00
2019-02-09T07:58:52.640Z,4024.00
2019-02-09T07:59:52.836Z,3380.00
2019-02-09T08:00:53.031Z,3604.00
2019-02-09T08:01:53.229Z,3312.00
2019-02-09T08:02:53.411Z,3420.00
2019-02-09T08:03:53.597Z,2748.00
2019-02-09T08:04:53.781Z,2232.00
2019-02-09T08:05:53.971Z,1792.00
2019-02-09T08:06:54.165Z,1700.00
2019-02-09T08:07:54.355Z,1704.00
2019-02-09T08:08:54.539Z,1772.00
2019-02-09T08:09:54.725Z,1896.00
2019-02-09T08:10:54.913Z,2168.00
2019-02-09T08:11:55.095Z,2464.00
2019-02-09T08:12:55.277Z,2344.00
2019-02-09T08:13:55.458Z,2132.00
2019-02-09T08:14:55.643Z,1852.00
2019-02-09T08:15:55.830Z,1832.00
2019-02-09T08:16:56.023Z,2208.00
2019-02-09T08:17:56.212Z,2824.00
2019-02-09T08:18:56.413Z,4296.00
2019-02-09T08:19:56.599Z,7116.00
2019-02-09T08:20:56.793Z,8120.00
2019-02-09T08:21:57.008Z,7548.00
2019-02-09T08:22:57.162Z,6976.00
2019-02-09T08:23:57.348Z,5776.00
2019-02-09T08:24:57.530Z,4276.00
2019-02-09T08:25:57.731Z,3696.00
2019-02-09T08:26:57.910Z,3756.00
2019-02-09T08:27:58.107Z,4004.00
2019-02-09T08:28:58.274Z,5008.00
2019-02-09T08:29:58.461Z,6820.00
2019-02-09T08:30:58.645Z,8528.00
2019-02-09T08:31:58.827Z,10160.00
2019-02-09T08:32:59.016Z,8260.00
2019-02-09T08:33:59.202Z,7212.00
2019-02-09T08:34:59.394Z,9516.00
2019-02-09T08:35:59.583Z,14412.00
2019-02-09T08:36:59.775Z,13472.00
2019-02-09T08:37:59.951Z,11592.00
2019-02-09T08:39:00.135Z,9776.00
2019-02-09T08:40:00.320Z,7164.00
2019-02-09T08:41:00.510Z,5432.00
2019-02-09T08:42:00.696Z,4820.00
2019-02-09T08:43:00.880Z,4800.00
2019-02-09T08:44:01.063Z,4232.00
2019-02-09T08:45:01.252Z,3792.00
2019-02-09T08:46:01.427Z,3824.00
2019-02-09T08:47:01.617Z,3708.00
2019-02-09T08:48:01.802Z,3384.00
2019-02-09T08:49:01.993Z,3824.00
2019-02-09T08:50:02.184Z,5708.00
2019-02-09T08:51:02.376Z,11736.00
2019-02-09T08:52:02.552Z,16672.00
2019-02-09T08:53:02.741Z,21696.00
2019-02-09T08:54:02.924Z,15496.00
2019-02-09T08:55:03.118Z,14184.00
2019-02-09T08:56:03.292Z,9072.00
2019-02-09T08:57:03.477Z,9020.00
2019-02-09T08:58:03.665Z,8780.00
2019-02-09T08:59:03.851Z,9356.00
2019-02-09T09:00:05.621Z,7368.00
2019-02-09T09:01:04.237Z,8848.00
2019-02-09T09:02:04.418Z,7132.00
2019-02-09T09:03:04.610Z,5812.00
2019-02-09T09:04:04.788Z,6768.00
2019-02-09T09:05:09.832Z,7908.00
2019-02-09T09:06:05.176Z,9380.00
2019-02-09T09:07:05.374Z,11424.00
2019-02-09T09:08:05.556Z,16768.00
2019-02-09T09:09:05.742Z,20160.00
2019-02-09T09:10:05.942Z,25568.00
2019-02-09T09:11:06.135Z,100416.00
2019-02-09T09:12:06.311Z,12612.00
2019-02-09T09:13:06.495Z,8640.00
2019-02-09T09:14:06.681Z,9484.00
2019-02-09T09:15:06.866Z,6696.00
2019-02-09T09:16:07.056Z,5996.00
2019-02-09T09:17:07.241Z,8220.00
2019-02-09T09:18:07.427Z,7336.00
2019-02-09T09:19:07.615Z,11920.00
2019-02-09T09:20:07.799Z,12276.00
2019-02-09T09:21:07.982Z,62304.00
2019-02-09T09:22:08.169Z,15144.00
2019-02-09T09:23:08.366Z,7256.00
2019-02-09T09:24:08.556Z,8616.00
2019-02-09T09:25:08.738Z,17440.00
2019-02-09T09:26:08.925Z,38208.00
2019-02-09T09:27:09.114Z,20416.00
2019-02-09T09:28:09.301Z,14076.00
2019-02-09T09:29:09.496Z,11248.00
2019-02-09T09:30:09.677Z,11848.00
2019-02-09T09:31:09.854Z,11848.00
2019-02-09T09:32:10.046Z,9904.00
2019-02-09T09:33:10.239Z,9572.00
2019-02-09T09:34:10.421Z,47200.00
2019-02-09T09:35:10.607Z,9368.00
2019-02-09T09:36:10.793Z,10272.00
2019-02-09T09:37:10.984Z,12116.00
2019-02-09T09:38:11.166Z,9368.00
2019-02-09T09:39:11.359Z,12080.00
2019-02-09T09:40:11.548Z,11972.00
2019-02-09T09:41:11.729Z,12036.00
2019-02-09T09:42:11.920Z,11664.00
2019-02-09T09:43:12.102Z,95808.00
2019-02-09T09:44:12.304Z,12260.00
2019-02-09T09:45:12.482Z,15832.00
2019-02-09T09:46:12.670Z,18784.00
2019-02-09T09:47:12.865Z,17120.00
2019-02-09T09:48:13.056Z,14284.00
2019-02-09T09:49:14.008Z,15148.00
2019-02-09T09:50:13.431Z,112576.00
2019-02-09T09:51:13.624Z,15644.00
2019-02-09T09:52:13.798Z,10180.00
2019-02-09T09:53:13.986Z,14020.00
2019-02-09T09:54:14.174Z,102080.00
2019-02-09T09:55:14.359Z,11208.00
2019-02-09T09:56:14.556Z,18528.00
2019-02-09T09:57:14.738Z,22816.00
2019-02-09T09:58:14.939Z,16992.00
2019-02-09T09:59:15.126Z,12820.00
2019-02-09T10:00:15.315Z,26112.00
2019-02-09T10:01:15.510Z,10988.00
2019-02-09T10:02:15.689Z,9216.00
2019-02-09T10:03:15.881Z,9132.00
2019-02-09T10:04:16.073Z,9600.00
2019-02-09T10:05:16.255Z,9048.00
2019-02-09T10:06:16.441Z,10524.00
2019-02-09T10:07:16.631Z,10348.00
2019-02-09T10:08:16.820Z,16576.00
2019-02-09T10:09:17.002Z,18816.00
2019-02-09T10:10:17.196Z,11616.00
2019-02-09T10:11:17.378Z,11048.00
2019-02-09T10:12:17.588Z,11164.00
2019-02-09T10:13:17.749Z,10204.00
2019-02-09T10:14:17.938Z,10972.00
2019-02-09T10:15:18.123Z,14380.00
2019-02-09T10:16:18.313Z,23872.00
2019-02-09T10:17:18.503Z,12864.00
2019-02-09T10:18:18.722Z,14136.00
2019-02-09T10:19:18.897Z,14268.00
2019-02-09T10:20:19.085Z,16928.00
2019-02-09T10:21:19.268Z,37088.00
2019-02-09T10:22:19.463Z,17120.00
2019-02-09T10:23:19.656Z,12540.00
2019-02-09T10:24:19.846Z,7888.00
2019-02-09T10:25:20.036Z,7232.00
2019-02-09T10:26:20.219Z,8076.00
2019-02-09T10:27:20.414Z,10356.00
2019-02-09T10:28:20.589Z,15392.00
2019-02-09T10:29:20.796Z,14132.00
2019-02-09T10:30:21.008Z,13512.00
2019-02-09T10:31:21.198Z,16448.00
2019-02-09T10:32:21.382Z,15152.00
2019-02-09T10:33:21.580Z,11296.00
2019-02-09T10:34:21.768Z,10668.00
2019-02-09T10:35:21.972Z,13184.00
2019-02-09T10:36:22.148Z,9060.00
2019-02-09T10:37:22.360Z,9416.00
2019-02-09T10:38:22.532Z,10548.00
2019-02-09T10:39:22.734Z,9256.00
2019-02-09T10:40:22.908Z,9196.00
2019-02-09T10:41:23.111Z,10276.00
2019-02-09T10:42:23.303Z,11432.00
2019-02-09T10:43:23.487Z,13656.00
2019-02-09T10:44:23.685Z,12888.00
2019-02-09T10:45:23.865Z,13292.00
2019-02-09T10:46:24.059Z,34336.00
2019-02-09T10:47:24.241Z,101056.00
2019-02-09T10:48:24.430Z,59168.00
2019-02-09T10:49:24.615Z,63712.00
2019-02-09T10:50:24.806Z,19808.00
2019-02-09T10:51:24.991Z,61856.00
2019-02-09T10:52:25.203Z,31584.00
2019-02-09T10:53:25.389Z,17984.00
2019-02-09T10:54:25.576Z,15428.00
2019-02-09T10:55:25.770Z,16352.00
2019-02-09T10:56:25.956Z,15616.00
2019-02-09T10:57:26.153Z,15844.00
2019-02-09T10:58:26.348Z,16576.00
2019-02-09T10:59:26.528Z,15464.00
2019-02-09T11:00:26.721Z,59584.00
2019-02-09T11:01:26.918Z,17696.00
2019-02-09T11:02:27.106Z,16608.00
2019-02-09T11:03:27.295Z,28448.00
2019-02-09T11:04:27.470Z,38112.00
2019-02-09T11:05:27.670Z,15128.00
2019-02-09T11:06:27.870Z,38208.00
2019-02-09T11:07:28.071Z,24672.00
2019-02-09T11:08:28.256Z,30880.00
2019-02-09T11:09:28.447Z,61856.00
2019-02-09T11:10:28.635Z,70496.00
2019-02-09T11:11:28.823Z,72384.00
2019-02-09T11:12:29.010Z,79872.00
2019-02-09T11:13:29.211Z,82560.00
2019-02-09T11:14:29.405Z,82048.00
2019-02-09T11:15:29.595Z,15916.00
2019-02-09T11:16:29.791Z,36512.00
2019-02-09T11:17:29.983Z,20480.00
2019-02-09T11:18:30.173Z,20864.00
2019-02-09T11:19:30.361Z,13040.00
2019-02-09T11:20:30.557Z,65760.00
2019-02-09T11:21:30.751Z,74112.00
2019-02-09T11:22:30.945Z,81472.00
2019-02-09T11:23:31.131Z,65248.00
2019-02-09T11:24:31.330Z,36960.00
2019-02-09T11:25:31.548Z,75008.00
2019-02-09T11:26:31.705Z,26144.00
2019-02-09T11:27:32.027Z,68896.00
2019-02-09T11:28:32.093Z,60160.00
2019-02-09T11:29:32.285Z,54432.00
2019-02-09T11:30:32.483Z,16800.00
2019-02-09T11:31:32.676Z,15568.00
2019-02-09T11:32:32.870Z,14364.00
2019-02-09T11:33:33.059Z,11304.00
2019-02-09T11:34:33.251Z,11464.00
2019-02-09T11:35:33.437Z,10640.00
2019-02-09T11:36:33.631Z,21024.00
2019-02-09T11:37:33.825Z,11424.00
2019-02-09T11:38:34.015Z,10264.00
2019-02-09T11:39:34.219Z,12568.00
2019-02-09T11:40:34.413Z,10840.00
2019-02-09T11:41:34.596Z,11492.00
2019-02-09T11:42:34.802Z,79424.00
2019-02-09T11:43:34.987Z,57088.00
2019-02-09T11:44:41.036Z,77856.00
2019-02-09T11:45:35.377Z,22464.00
2019-02-09T11:46:35.567Z,76096.00
2019-02-09T11:47:35.757Z,20608.00
2019-02-09T11:48:35.948Z,72960.00
2019-02-09T11:49:36.133Z,69632.00
2019-02-09T11:50:36.328Z,69792.00
2019-02-09T11:51:36.520Z,70816.00
2019-02-09T11:52:36.715Z,34048.00
2019-02-09T11:53:36.903Z,77952.00
2019-02-09T11:54:37.131Z,68832.00
2019-02-09T11:55:37.313Z,18304.00
2019-02-09T11:56:37.499Z,17376.00
2019-02-09T11:57:37.696Z,70272.00
2019-02-09T11:58:37.897Z,15416.00
2019-02-09T11:59:38.094Z,12268.00
2019-02-09T12:00:38.293Z,12716.00
2019-02-09T12:01:38.480Z,18048.00
2019-02-09T12:02:38.669Z,78944.00
2019-02-09T12:03:38.853Z,23488.00
2019-02-09T12:04:39.048Z,18528.00
2019-02-09T12:05:39.245Z,23840.00
2019-02-09T12:06:39.437Z,48832.00
2019-02-09T12:07:39.686Z,25056.00
2019-02-09T12:08:39.842Z,35168.00
2019-02-09T12:09:40.039Z,20288.00
2019-02-09T12:10:40.229Z,34592.00
2019-02-09T12:11:40.428Z,71808.00
2019-02-09T12:12:40.633Z,46912.00
2019-02-09T12:13:40.815Z,19392.00
2019-02-09T12:14:41.036Z,53344.00
2019-02-09T12:15:41.200Z,15680.00
2019-02-09T12:16:41.398Z,13344.00
2019-02-09T12:17:41.593Z,11112.00
2019-02-09T12:18:41.778Z,9532.00
2019-02-09T12:19:41.971Z,9144.00
2019-02-09T12:20:42.163Z,9924.00
2019-02-09T12:21:42.353Z,11608.00
2019-02-09T12:22:42.552Z,12616.00
2019-02-09T12:23:42.736Z,10896.00
2019-02-09T12:24:42.929Z,17376.00
2019-02-09T12:25:43.110Z,11400.00
2019-02-09T12:26:43.308Z,7756.00
2019-02-09T12:27:43.518Z,7208.00
2019-02-09T12:28:43.734Z,7300.00
2019-02-09T12:29:43.924Z,9096.00
2019-02-09T12:30:44.110Z,10304.00
2019-02-09T12:31:44.305Z,11208.00
2019-02-09T12:32:44.521Z,11624.00
2019-02-09T12:33:44.704Z,40416.00
2019-02-09T12:34:44.890Z,51680.00
2019-02-09T12:35:45.082Z,41632.00
2019-02-09T12:36:45.281Z,13972.00
2019-02-09T12:37:45.468Z,13104.00